AirNav   Phillips 66 Aviation Fuel
 
 1109 users online  

L33 Tensas Parish Airport
St Joseph, Louisiana, USA

GOING TO ST JOSEPH?


FAA INFORMATION EFFECTIVE 29 MARCH 2018

Location

FAA Identifier: L33
Lat/Long: 31-58-23.5900N / 091-14-19.4400W
31-58.393167N / 091-14.324000W
31.9732194 / -91.2387333
(estimated)
Elevation: 74.2 ft. / 22.6 m (surveyed)
Variation: 04E (1985)
From city: 4 miles NE of ST JOSEPH, LA
Time zone: UTC -5 (UTC -6 during Standard Time)
Zip code: 71366

Airport Operations

Airport use: Open to the public
Activation date: 07/1986
Control tower: no
ARTCC: MEMPHIS CENTER
FSS: DE RIDDER FLIGHT SERVICE STATION
NOTAMs facility: DRI (NOTAM-D service available)
Attendance: UNATNDD
FOR ARPT ATTENDANT CALL 318-282-0348 OR 318-372-7277.
Wind indicator: lighted
Segmented circle: yes
Lights: MIRL RY 16/34 PRESET LOW INTST; TO INCR INTST ACTVT - CTAF.
Beacon: white-green (lighted land airport)
Operates sunset to sunrise.

Airport Communications

CTAF: 122.9

Nearby radio navigation aids

VOR radial/distance  VOR name  Freq  Var
HEZr005/21.5NATCHEZ VOR/DME110.0003E

 
NDB name  Hdg/Dist  Freq  Var  ID
NATCHEZ-ADAMS COUNTY009/17.238800EHAH .... .- ....
TALLULAH212/19.634402ETKH - -.- ....

Airport Services

Parking: tiedowns

Runway Information

Runway 16/34

Dimensions: 3509 x 75 ft. / 1070 x 23 m
Surface: asphalt, in good condition
Weight bearing capacity: 
Single wheel: 12.0
Runway edge lights: medium intensity
RUNWAY 16  RUNWAY 34
Latitude: 31-58.665833N31-58.120500N
Longitude: 091-14.437667W091-14.210333W
Elevation: 74.2 ft.74.1 ft.
Traffic pattern: leftleft
Markings: basic, in good conditionbasic, in good condition
Obstructions: 15 ft. road, 435 ft. from runway, 15:1 slope to clear105 ft. trees, 1347 ft. from runway, 11:1 slope to clear

Airport Ownership and Management from official FAA records

Ownership: Publicly-owned
Owner: TENSAS PARISH POLICE JURY
PO BOX 6168
ST JOSEPH, LA 71366
Phone 318-766-3542
Manager: RON WILHITE
PO BOX 557
ST JOSEPH, LA 71366
Phone (318) 537-1475

Airport Operational Statistics

Aircraft based on the field: 9
Single engine airplanes: 8
Ultralights: 1
    
Aircraft operations: avg 41/day *
80% local general aviation
20% transient general aviation
* for 12-month period ending 23 March 2017

Additional Remarks

BIRDS IN VICINITY OF AIRPORT.

Instrument Procedures

There are no published instrument procedures at L33.

Some nearby airports with instrument procedures:

KHEZ - Hardy-Anders Field Natchez-Adams County Airport (22 nm S)
KVKS - Vicksburg Municipal Airport (22 nm NE)
KTVR - Vicksburg Tallulah Regional Airport (25 nm NE)
0R4 - Concordia Parish Airport (28 nm SW)
M79 - John H Hooks Jr Memorial Airport (41 nm NW)
 
Loc | Ops | Rwys | IFR | FBO | Links
Com | Nav | Svcs | Stats | Notes

AirNav Hotels Sweepstakes
 
Area around L33 (Tensas Parish Airport)
 
Road maps at: MapQuest Bing Google
 
Aerial photo
WARNING: Photo may not be current or correct
Aerial photo of L33 (Tensas Parish Airport)
Photo taken 30-Nov-2012
looking north.

Do you have a better or more recent aerial photo of Tensas Parish Airport that you would like to share? If so, please send us your photo.

 
Sectional chart

 
Airport distance calculator
Flying to Tensas Parish Airport? Find the distance to fly.

From to L33

Sunrise and sunset
Times for 21-Apr-2018
 Local
(UTC-5)
 Zulu
(UTC)
Morning civil twilight06:0511:05
Sunrise06:3011:30
Sunset19:3700:37
Evening civil twilight20:0201:02

Current date and time
Zulu (UTC)  21-Apr-2018 15:27:30
Local (UTC-5)  21-Apr-2018 10:27:30
 
METAR
KHEZ 
22nm S 
211456Z AUTO 14004KT 10SM CLR 17/10 A3016 RMK AO2 SLP217 T01670100 53007
KVKS 
22nm NE 
211515Z AUTO 13007G13KT 090V170 10SM CLR 19/10 A3017 RMK A01
KTVR 
25nm NE 
211453Z AUTO 15012KT 10SM CLR 18/11 A3018 RMK AO2 SLP225 T01830106 51010
TAF
NOTAMs
Click for the latest NOTAMs
NOTAMs are issued by the DoD/FAA and will open in a separate window not controlled by AirNav.

 

 
 

Would you like to see your business listed on this page?

 If your business provides an interesting product or service to pilots, flight crews, aircraft, or users of the Tensas Parish Airport, you should consider listing it here.  To start the listing process, click on the button below
 
Add a business
 

Other Pages about Tensas Parish Airport

Update a link
 
Copyright © AirNav, LLC. All rights reserved. Privacy Policy  Contact